sensor_id;sensor_type;location;lat;lon;timestamp;temperature;humidity
5723;DHT22;2886;49.722;8.612;2023-06-26T00:01:17;21.70;67.30
5723;DHT22;2886;49.722;8.612;2023-06-26T00:03:46;21.60;67.20
5723;DHT22;2886;49.722;8.612;2023-06-26T00:06:12;21.60;67.20
5723;DHT22;2886;49.722;8.612;2023-06-26T00:08:38;21.50;67.20
5723;DHT22;2886;49.722;8.612;2023-06-26T00:11:03;21.50;67.10
5723;DHT22;2886;49.722;8.612;2023-06-26T00:13:29;21.50;67.60
5723;DHT22;2886;49.722;8.612;2023-06-26T00:15:55;21.40;69.50
5723;DHT22;2886;49.722;8.612;2023-06-26T00:18:20;21.40;69.60
5723;DHT22;2886;49.722;8.612;2023-06-26T00:20:46;21.30;67.70
5723;DHT22;2886;49.722;8.612;2023-06-26T00:23:12;21.30;67.50
5723;DHT22;2886;49.722;8.612;2023-06-26T00:25:38;21.30;68.60
5723;DHT22;2886;49.722;8.612;2023-06-26T00:28:04;21.30;69.60
5723;DHT22;2886;49.722;8.612;2023-06-26T00:30:29;21.20;68.60
5723;DHT22;2886;49.722;8.612;2023-06-26T00:32:56;21.20;68.30
5723;DHT22;2886;49.722;8.612;2023-06-26T00:35:22;21.20;68.60
5723;DHT22;2886;49.722;8.612;2023-06-26T00:37:47;21.10;68.70
5723;DHT22;2886;49.722;8.612;2023-06-26T00:40:13;21.10;68.60
5723;DHT22;2886;49.722;8.612;2023-06-26T00:42:39;21.10;68.10
5723;DHT22;2886;49.722;8.612;2023-06-26T00:45:05;21.10;68.30
5723;DHT22;2886;49.722;8.612;2023-06-26T00:47:31;21.10;71.60
5723;DHT22;2886;49.722;8.612;2023-06-26T00:49:57;21.00;72.30
5723;DHT22;2886;49.722;8.612;2023-06-26T00:52:22;21.00;72.10
5723;DHT22;2886;49.722;8.612;2023-06-26T00:54:49;20.90;72.10
5723;DHT22;2886;49.722;8.612;2023-06-26T00:57:17;20.90;71.80
5723;DHT22;2886;49.722;8.612;2023-06-26T00:59:43;20.80;72.50
5723;DHT22;2886;49.722;8.612;2023-06-26T01:02:08;20.80;72.90
5723;DHT22;2886;49.722;8.612;2023-06-26T01:04:35;20.70;73.40
5723;DHT22;2886;49.722;8.612;2023-06-26T01:07:02;20.70;73.80
5723;DHT22;2886;49.722;8.612;2023-06-26T01:09:29;20.60;74.10
5723;DHT22;2886;49.722;8.612;2023-06-26T01:11:55;20.60;74.50
5723;DHT22;2886;49.722;8.612;2023-06-26T01:14:20;20.50;74.60
5723;DHT22;2886;49.722;8.612;2023-06-26T01:16:46;20.50;74.70
5723;DHT22;2886;49.722;8.612;2023-06-26T01:19:24;20.50;74.90
5723;DHT22;2886;49.722;8.612;2023-06-26T01:21:55;20.50;75.60
5723;DHT22;2886;49.722;8.612;2023-06-26T01:24:22;20.50;74.80
5723;DHT22;2886;49.722;8.612;2023-06-26T01:26:53;20.40;74.60
5723;DHT22;2886;49.722;8.612;2023-06-26T01:29:19;20.40;75.00
5723;DHT22;2886;49.722;8.612;2023-06-26T01:31:47;20.40;75.00
5723;DHT22;2886;49.722;8.612;2023-06-26T01:34:18;20.30;75.20
5723;DHT22;2886;49.722;8.612;2023-06-26T01:36:46;20.30;75.60
5723;DHT22;2886;49.722;8.612;2023-06-26T01:39:19;20.30;75.50
5723;DHT22;2886;49.722;8.612;2023-06-26T01:41:45;20.20;75.90
5723;DHT22;2886;49.722;8.612;2023-06-26T01:44:28;20.20;76.90
5723;DHT22;2886;49.722;8.612;2023-06-26T01:47:02;20.20;76.80
5723;DHT22;2886;49.722;8.612;2023-06-26T01:52:29;20.10;77.20
5723;DHT22;2886;49.722;8.612;2023-06-26T01:58:11;20.10;77.40
5723;DHT22;2886;49.722;8.612;2023-06-26T02:00:38;20.10;77.00
5723;DHT22;2886;49.722;8.612;2023-06-26T02:03:05;20.00;77.10
5723;DHT22;2886;49.722;8.612;2023-06-26T02:05:32;20.00;77.00
5723;DHT22;2886;49.722;8.612;2023-06-26T02:07:58;20.00;77.50
5723;DHT22;2886;49.722;8.612;2023-06-26T02:10:23;20.00;78.40
5723;DHT22;2886;49.722;8.612;2023-06-26T02:12:49;20.00;79.40
5723;DHT22;2886;49.722;8.612;2023-06-26T02:15:14;19.80;80.00
5723;DHT22;2886;49.722;8.612;2023-06-26T02:17:40;19.80;80.50
5723;DHT22;2886;49.722;8.612;2023-06-26T02:20:07;19.80;81.30
5723;DHT22;2886;49.722;8.612;2023-06-26T02:22:34;19.80;81.30
5723;DHT22;2886;49.722;8.612;2023-06-26T02:25:00;19.80;80.40
5723;DHT22;2886;49.722;8.612;2023-06-26T02:27:25;19.80;80.40
5723;DHT22;2886;49.722;8.612;2023-06-26T02:29:51;19.80;81.80
5723;DHT22;2886;49.722;8.612;2023-06-26T02:32:17;19.70;81.00
5723;DHT22;2886;49.722;8.612;2023-06-26T02:34:42;19.70;81.00
5723;DHT22;2886;49.722;8.612;2023-06-26T02:37:08;19.70;81.40
5723;DHT22;2886;49.722;8.612;2023-06-26T02:39:34;19.70;82.10
5723;DHT22;2886;49.722;8.612;2023-06-26T02:42:00;19.60;82.80
5723;DHT22;2886;49.722;8.612;2023-06-26T02:44:25;19.60;82.40
5723;DHT22;2886;49.722;8.612;2023-06-26T02:46:52;19.60;82.80
5723;DHT22;2886;49.722;8.612;2023-06-26T02:49:18;19.50;83.10
5723;DHT22;2886;49.722;8.612;2023-06-26T02:51:43;19.50;83.60
5723;DHT22;2886;49.722;8.612;2023-06-26T02:54:09;19.50;84.50
5723;DHT22;2886;49.722;8.612;2023-06-26T02:56:34;19.50;84.70
5723;DHT22;2886;49.722;8.612;2023-06-26T02:59:00;19.40;85.00
5723;DHT22;2886;49.722;8.612;2023-06-26T03:01:26;19.40;85.20
5723;DHT22;2886;49.722;8.612;2023-06-26T03:03:51;19.30;85.20
5723;DHT22;2886;49.722;8.612;2023-06-26T03:06:18;19.30;85.90
5723;DHT22;2886;49.722;8.612;2023-06-26T03:08:43;19.20;85.90
5723;DHT22;2886;49.722;8.612;2023-06-26T03:11:09;19.20;86.60
5723;DHT22;2886;49.722;8.612;2023-06-26T03:13:36;19.20;86.90
5723;DHT22;2886;49.722;8.612;2023-06-26T03:16:02;19.10;87.20
5723;DHT22;2886;49.722;8.612;2023-06-26T03:18:28;19.20;86.80
5723;DHT22;2886;49.722;8.612;2023-06-26T03:20:55;19.20;86.60
5723;DHT22;2886;49.722;8.612;2023-06-26T03:23:21;19.20;86.30
5723;DHT22;2886;49.722;8.612;2023-06-26T03:25:47;19.20;86.60
5723;DHT22;2886;49.722;8.612;2023-06-26T03:28:13;19.10;86.00
5723;DHT22;2886;49.722;8.612;2023-06-26T03:30:39;19.20;85.60
5723;DHT22;2886;49.722;8.612;2023-06-26T03:33:05;19.20;85.20
5723;DHT22;2886;49.722;8.612;2023-06-26T03:35:30;19.20;84.50
5723;DHT22;2886;49.722;8.612;2023-06-26T03:37:57;19.20;84.10
5723;DHT22;2886;49.722;8.612;2023-06-26T03:40:23;19.20;84.40
5723;DHT22;2886;49.722;8.612;2023-06-26T03:42:49;19.20;84.30
5723;DHT22;2886;49.722;8.612;2023-06-26T03:45:14;19.20;84.30
5723;DHT22;2886;49.722;8.612;2023-06-26T03:47:40;19.20;84.40
5723;DHT22;2886;49.722;8.612;2023-06-26T03:50:06;19.20;84.10
5723;DHT22;2886;49.722;8.612;2023-06-26T03:52:31;19.20;84.10
5723;DHT22;2886;49.722;8.612;2023-06-26T03:54:57;19.20;83.70
5723;DHT22;2886;49.722;8.612;2023-06-26T03:57:23;19.20;84.00
5723;DHT22;2886;49.722;8.612;2023-06-26T03:59:49;19.20;84.20
5723;DHT22;2886;49.722;8.612;2023-06-26T04:02:15;19.10;85.20
5723;DHT22;2886;49.722;8.612;2023-06-26T04:04:41;19.10;84.90
5723;DHT22;2886;49.722;8.612;2023-06-26T04:07:06;19.10;85.00
5723;DHT22;2886;49.722;8.612;2023-06-26T04:09:32;19.10;85.00
5723;DHT22;2886;49.722;8.612;2023-06-26T04:12:00;19.10;85.40
5723;DHT22;2886;49.722;8.612;2023-06-26T04:14:25;19.10;85.80
5723;DHT22;2886;49.722;8.612;2023-06-26T04:16:51;19.10;85.90
5723;DHT22;2886;49.722;8.612;2023-06-26T04:19:17;19.10;86.40
5723;DHT22;2886;49.722;8.612;2023-06-26T04:21:42;19.10;86.00
5723;DHT22;2886;49.722;8.612;2023-06-26T04:24:08;19.20;85.80
5723;DHT22;2886;49.722;8.612;2023-06-26T04:26:34;19.20;85.80
5723;DHT22;2886;49.722;8.612;2023-06-26T04:29:00;19.20;85.90
5723;DHT22;2886;49.722;8.612;2023-06-26T04:31:25;19.20;85.80
5723;DHT22;2886;49.722;8.612;2023-06-26T04:33:51;19.20;85.80
5723;DHT22;2886;49.722;8.612;2023-06-26T04:36:20;19.20;85.80
5723;DHT22;2886;49.722;8.612;2023-06-26T04:38:46;19.30;86.10
5723;DHT22;2886;49.722;8.612;2023-06-26T04:41:13;19.30;86.10
5723;DHT22;2886;49.722;8.612;2023-06-26T04:43:39;19.40;85.70
5723;DHT22;2886;49.722;8.612;2023-06-26T04:46:05;19.40;85.90
5723;DHT22;2886;49.722;8.612;2023-06-26T04:48:32;19.40;85.90
5723;DHT22;2886;49.722;8.612;2023-06-26T04:50:57;19.50;85.90
5723;DHT22;2886;49.722;8.612;2023-06-26T04:53:24;19.50;85.40
5723;DHT22;2886;49.722;8.612;2023-06-26T04:55:51;19.60;85.20
5723;DHT22;2886;49.722;8.612;2023-06-26T04:58:17;19.60;85.20
5723;DHT22;2886;49.722;8.612;2023-06-26T05:00:43;19.70;85.20
5723;DHT22;2886;49.722;8.612;2023-06-26T05:03:13;19.90;86.10
5723;DHT22;2886;49.722;8.612;2023-06-26T05:05:39;20.50;83.70
5723;DHT22;2886;49.722;8.612;2023-06-26T05:08:20;21.30;77.60
5723;DHT22;2886;49.722;8.612;2023-06-26T05:10:46;21.80;73.60
5723;DHT22;2886;49.722;8.612;2023-06-26T05:13:13;21.90;72.20
5723;DHT22;2886;49.722;8.612;2023-06-26T05:15:41;21.90;72.30
5723;DHT22;2886;49.722;8.612;2023-06-26T05:18:07;21.90;72.80
5723;DHT22;2886;49.722;8.612;2023-06-26T05:20:34;21.90;72.80
5723;DHT22;2886;49.722;8.612;2023-06-26T05:23:04;22.00;73.50
5723;DHT22;2886;49.722;8.612;2023-06-26T05:25:30;22.20;74.40
5723;DHT22;2886;49.722;8.612;2023-06-26T05:27:57;23.40;70.20
5723;DHT22;2886;49.722;8.612;2023-06-26T05:30:24;24.80;64.50
5723;DHT22;2886;49.722;8.612;2023-06-26T05:32:52;26.10;58.00
5723;DHT22;2886;49.722;8.612;2023-06-26T05:35:19;27.30;50.70
5723;DHT22;2886;49.722;8.612;2023-06-26T05:37:45;28.00;46.40
5723;DHT22;2886;49.722;8.612;2023-06-26T05:40:13;28.40;44.10
5723;DHT22;2886;49.722;8.612;2023-06-26T05:42:39;27.90;44.30
5723;DHT22;2886;49.722;8.612;2023-06-26T05:45:05;27.60;45.60
5723;DHT22;2886;49.722;8.612;2023-06-26T05:47:31;27.90;45.50
5723;DHT22;2886;49.722;8.612;2023-06-26T05:49:56;28.40;44.20
5723;DHT22;2886;49.722;8.612;2023-06-26T05:52:23;29.00;43.30
5723;DHT22;2886;49.722;8.612;2023-06-26T05:54:49;29.60;42.20
5723;DHT22;2886;49.722;8.612;2023-06-26T05:57:15;30.20;40.40
5723;DHT22;2886;49.722;8.612;2023-06-26T05:59:43;30.60;39.20
5723;DHT22;2886;49.722;8.612;2023-06-26T06:02:08;30.60;38.80
5723;DHT22;2886;49.722;8.612;2023-06-26T06:04:34;30.80;37.10
5723;DHT22;2886;49.722;8.612;2023-06-26T06:07:00;30.30;36.30
5723;DHT22;2886;49.722;8.612;2023-06-26T06:09:26;30.00;36.70
5723;DHT22;2886;49.722;8.612;2023-06-26T06:11:52;29.60;37.20
5723;DHT22;2886;49.722;8.612;2023-06-26T06:14:17;29.30;37.70
5723;DHT22;2886;49.722;8.612;2023-06-26T06:16:43;29.20;38.30
5723;DHT22;2886;49.722;8.612;2023-06-26T06:19:08;29.50;37.90
5723;DHT22;2886;49.722;8.612;2023-06-26T06:21:36;29.60;38.00
5723;DHT22;2886;49.722;8.612;2023-06-26T06:24:02;30.00;37.30
5723;DHT22;2886;49.722;8.612;2023-06-26T06:26:28;30.20;36.90
5723;DHT22;2886;49.722;8.612;2023-06-26T06:28:55;30.20;37.80
5723;DHT22;2886;49.722;8.612;2023-06-26T06:31:21;30.20;36.80
5723;DHT22;2886;49.722;8.612;2023-06-26T06:33:46;30.10;36.70
5723;DHT22;2886;49.722;8.612;2023-06-26T06:36:12;30.20;36.80
5723;DHT22;2886;49.722;8.612;2023-06-26T06:38:37;30.00;36.70
5723;DHT22;2886;49.722;8.612;2023-06-26T06:41:03;30.30;36.00
5723;DHT22;2886;49.722;8.612;2023-06-26T06:43:28;30.70;35.40
5723;DHT22;2886;49.722;8.612;2023-06-26T06:45:54;30.40;34.30
5723;DHT22;2886;49.722;8.612;2023-06-26T06:48:19;30.20;34.70
5723;DHT22;2886;49.722;8.612;2023-06-26T06:50:45;30.20;34.50
5723;DHT22;2886;49.722;8.612;2023-06-26T06:53:11;30.40;34.20
5723;DHT22;2886;49.722;8.612;2023-06-26T06:55:36;30.70;33.50
5723;DHT22;2886;49.722;8.612;2023-06-26T06:58:02;30.40;33.60
5723;DHT22;2886;49.722;8.612;2023-06-26T07:00:28;30.60;33.70
5723;DHT22;2886;49.722;8.612;2023-06-26T07:02:53;30.70;33.20
5723;DHT22;2886;49.722;8.612;2023-06-26T07:05:19;30.60;33.00
5723;DHT22;2886;49.722;8.612;2023-06-26T07:07:45;30.60;32.70
5723;DHT22;2886;49.722;8.612;2023-06-26T07:10:12;30.20;33.30
5723;DHT22;2886;49.722;8.612;2023-06-26T07:12:38;30.10;33.80
5723;DHT22;2886;49.722;8.612;2023-06-26T07:15:05;30.00;33.90
5723;DHT22;2886;49.722;8.612;2023-06-26T07:17:32;29.80;34.30
5723;DHT22;2886;49.722;8.612;2023-06-26T07:19:58;29.20;35.50
5723;DHT22;2886;49.722;8.612;2023-06-26T07:22:24;28.70;36.70
5723;DHT22;2886;49.722;8.612;2023-06-26T07:24:50;28.30;37.50
5723;DHT22;2886;49.722;8.612;2023-06-26T07:27:16;28.00;38.30
5723;DHT22;2886;49.722;8.612;2023-06-26T07:29:42;27.80;39.20
5723;DHT22;2886;49.722;8.612;2023-06-26T07:32:08;27.70;39.10
5723;DHT22;2886;49.722;8.612;2023-06-26T07:34:33;27.70;38.90
5723;DHT22;2886;49.722;8.612;2023-06-26T07:36:59;27.70;39.20
5723;DHT22;2886;49.722;8.612;2023-06-26T07:39:25;27.70;39.20
5723;DHT22;2886;49.722;8.612;2023-06-26T07:41:50;27.70;39.50
5723;DHT22;2886;49.722;8.612;2023-06-26T07:44:16;27.70;38.70
5723;DHT22;2886;49.722;8.612;2023-06-26T07:46:41;27.70;39.00
5723;DHT22;2886;49.722;8.612;2023-06-26T07:49:07;27.70;39.60
5723;DHT22;2886;49.722;8.612;2023-06-26T07:51:33;27.90;39.20
5723;DHT22;2886;49.722;8.612;2023-06-26T07:53:58;28.00;39.30
5723;DHT22;2886;49.722;8.612;2023-06-26T07:56:24;28.00;39.30
5723;DHT22;2886;49.722;8.612;2023-06-26T07:58:49;28.10;39.20
5723;DHT22;2886;49.722;8.612;2023-06-26T08:01:15;28.30;38.70
5723;DHT22;2886;49.722;8.612;2023-06-26T08:03:41;28.40;38.60
5723;DHT22;2886;49.722;8.612;2023-06-26T08:06:07;28.50;38.60
5723;DHT22;2886;49.722;8.612;2023-06-26T08:08:33;28.60;38.20
5723;DHT22;2886;49.722;8.612;2023-06-26T08:10:58;28.70;38.70
5723;DHT22;2886;49.722;8.612;2023-06-26T08:13:24;28.80;38.40
5723;DHT22;2886;49.722;8.612;2023-06-26T08:15:50;28.90;38.00
5723;DHT22;2886;49.722;8.612;2023-06-26T08:18:15;29.00;37.10
5723;DHT22;2886;49.722;8.612;2023-06-26T08:20:41;29.10;37.60
5723;DHT22;2886;49.722;8.612;2023-06-26T08:23:07;29.10;37.00
5723;DHT22;2886;49.722;8.612;2023-06-26T08:25:32;29.20;37.30
5723;DHT22;2886;49.722;8.612;2023-06-26T08:27:58;29.30;36.80
5723;DHT22;2886;49.722;8.612;2023-06-26T08:30:24;29.50;36.60
5723;DHT22;2886;49.722;8.612;2023-06-26T08:32:56;29.60;37.60
5723;DHT22;2886;49.722;8.612;2023-06-26T08:35:22;29.90;36.40
5723;DHT22;2886;49.722;8.612;2023-06-26T08:37:47;30.20;35.10
5723;DHT22;2886;49.722;8.612;2023-06-26T08:40:16;30.60;35.20
5723;DHT22;2886;49.722;8.612;2023-06-26T08:42:42;31.10;34.30
5723;DHT22;2886;49.722;8.612;2023-06-26T08:45:08;31.30;33.60
5723;DHT22;2886;49.722;8.612;2023-06-26T08:47:35;31.00;32.70
5723;DHT22;2886;49.722;8.612;2023-06-26T08:50:12;31.00;33.50
5723;DHT22;2886;49.722;8.612;2023-06-26T08:55:31;30.80;33.80
5723;DHT22;2886;49.722;8.612;2023-06-26T08:57:57;30.60;33.70
5723;DHT22;2886;49.722;8.612;2023-06-26T09:00:23;30.30;34.80
5723;DHT22;2886;49.722;8.612;2023-06-26T09:02:50;30.10;35.40
5723;DHT22;2886;49.722;8.612;2023-06-26T09:05:16;30.00;35.50
5723;DHT22;2886;49.722;8.612;2023-06-26T09:07:41;29.90;36.70
5723;DHT22;2886;49.722;8.612;2023-06-26T09:10:07;29.90;35.80
5723;DHT22;2886;49.722;8.612;2023-06-26T09:12:33;29.80;35.80
5723;DHT22;2886;49.722;8.612;2023-06-26T09:15:01;30.20;35.40
5723;DHT22;2886;49.722;8.612;2023-06-26T09:17:34;30.40;35.40
5723;DHT22;2886;49.722;8.612;2023-06-26T09:20:04;30.80;34.40
5723;DHT22;2886;49.722;8.612;2023-06-26T09:22:35;30.90;34.00
5723;DHT22;2886;49.722;8.612;2023-06-26T09:25:03;30.80;34.40
5723;DHT22;2886;49.722;8.612;2023-06-26T09:27:29;30.50;34.80
5723;DHT22;2886;49.722;8.612;2023-06-26T09:29:55;30.20;35.30
5723;DHT22;2886;49.722;8.612;2023-06-26T09:32:24;30.00;35.00
5723;DHT22;2886;49.722;8.612;2023-06-26T09:34:52;30.00;35.00
5723;DHT22;2886;49.722;8.612;2023-06-26T09:37:18;29.80;34.90
5723;DHT22;2886;49.722;8.612;2023-06-26T09:39:44;29.90;34.60
5723;DHT22;2886;49.722;8.612;2023-06-26T09:42:10;30.10;34.90
5723;DHT22;2886;49.722;8.612;2023-06-26T09:44:46;30.20;34.40
5723;DHT22;2886;49.722;8.612;2023-06-26T09:47:13;30.30;34.50
5723;DHT22;2886;49.722;8.612;2023-06-26T09:49:41;30.20;34.20
5723;DHT22;2886;49.722;8.612;2023-06-26T09:52:08;30.20;34.50
5723;DHT22;2886;49.722;8.612;2023-06-26T09:54:34;30.20;34.70
5723;DHT22;2886;49.722;8.612;2023-06-26T09:57:11;30.60;34.60
5723;DHT22;2886;49.722;8.612;2023-06-26T09:59:37;30.70;34.00
5723;DHT22;2886;49.722;8.612;2023-06-26T10:02:03;31.00;33.50
5723;DHT22;2886;49.722;8.612;2023-06-26T10:04:29;31.20;32.90
5723;DHT22;2886;49.722;8.612;2023-06-26T10:06:56;31.50;32.90
5723;DHT22;2886;49.722;8.612;2023-06-26T10:09:23;31.30;33.90
5723;DHT22;2886;49.722;8.612;2023-06-26T10:11:58;31.20;33.50
5723;DHT22;2886;49.722;8.612;2023-06-26T10:14:27;31.20;33.80
5723;DHT22;2886;49.722;8.612;2023-06-26T10:16:57;31.10;34.00
5723;DHT22;2886;49.722;8.612;2023-06-26T10:19:27;30.60;35.40
5723;DHT22;2886;49.722;8.612;2023-06-26T10:21:54;30.20;36.00
5723;DHT22;2886;49.722;8.612;2023-06-26T10:24:21;30.10;36.40
5723;DHT22;2886;49.722;8.612;2023-06-26T10:26:50;30.40;36.20
5723;DHT22;2886;49.722;8.612;2023-06-26T10:29:18;30.60;36.00
5723;DHT22;2886;49.722;8.612;2023-06-26T10:31:50;30.50;35.80
5723;DHT22;2886;49.722;8.612;2023-06-26T10:34:17;30.80;35.70
5723;DHT22;2886;49.722;8.612;2023-06-26T10:36:43;30.40;35.80
5723;DHT22;2886;49.722;8.612;2023-06-26T10:39:09;30.20;36.50
5723;DHT22;2886;49.722;8.612;2023-06-26T10:41:39;30.00;36.90
5723;DHT22;2886;49.722;8.612;2023-06-26T10:44:16;30.00;36.50
5723;DHT22;2886;49.722;8.612;2023-06-26T10:46:56;30.20;36.60
5723;DHT22;2886;49.722;8.612;2023-06-26T10:49:29;30.50;35.80
5723;DHT22;2886;49.722;8.612;2023-06-26T10:52:01;30.30;36.30
5723;DHT22;2886;49.722;8.612;2023-06-26T10:54:31;30.50;36.40
5723;DHT22;2886;49.722;8.612;2023-06-26T10:56:57;30.60;36.00
5723;DHT22;2886;49.722;8.612;2023-06-26T10:59:27;30.30;35.70
5723;DHT22;2886;49.722;8.612;2023-06-26T11:01:57;30.00;36.10
5723;DHT22;2886;49.722;8.612;2023-06-26T11:07:15;30.10;36.20
5723;DHT22;2886;49.722;8.612;2023-06-26T11:15:25;30.30;35.30
5723;DHT22;2886;49.722;8.612;2023-06-26T11:17:49;30.20;35.40
5723;DHT22;2886;49.722;8.612;2023-06-26T11:20:16;30.60;35.40
5723;DHT22;2886;49.722;8.612;2023-06-26T11:22:43;31.20;34.60
5723;DHT22;2886;49.722;8.612;2023-06-26T11:25:10;31.40;34.00
5723;DHT22;2886;49.722;8.612;2023-06-26T11:27:40;31.40;33.70
5723;DHT22;2886;49.722;8.612;2023-06-26T11:30:07;31.10;34.10
5723;DHT22;2886;49.722;8.612;2023-06-26T11:32:33;31.20;33.80
5723;DHT22;2886;49.722;8.612;2023-06-26T11:34:59;31.50;33.30
5723;DHT22;2886;49.722;8.612;2023-06-26T11:37:25;30.90;33.80
5723;DHT22;2886;49.722;8.612;2023-06-26T11:39:51;30.30;35.60
5723;DHT22;2886;49.722;8.612;2023-06-26T11:42:20;30.50;35.20
5723;DHT22;2886;49.722;8.612;2023-06-26T11:44:46;30.70;34.70
5723;DHT22;2886;49.722;8.612;2023-06-26T11:47:20;31.00;34.20
5723;DHT22;2886;49.722;8.612;2023-06-26T11:49:47;30.80;34.30
5723;DHT22;2886;49.722;8.612;2023-06-26T11:52:14;31.10;34.30
5723;DHT22;2886;49.722;8.612;2023-06-26T11:54:40;31.40;34.30
5723;DHT22;2886;49.722;8.612;2023-06-26T11:57:06;31.70;33.60
5723;DHT22;2886;49.722;8.612;2023-06-26T11:59:39;31.60;32.90
5723;DHT22;2886;49.722;8.612;2023-06-26T12:02:09;31.60;33.10
5723;DHT22;2886;49.722;8.612;2023-06-26T12:04:37;31.00;33.60
5723;DHT22;2886;49.722;8.612;2023-06-26T12:07:05;30.80;34.20
5723;DHT22;2886;49.722;8.612;2023-06-26T12:09:33;31.00;33.70
5723;DHT22;2886;49.722;8.612;2023-06-26T12:11:59;31.20;32.50
5723;DHT22;2886;49.722;8.612;2023-06-26T12:14:26;31.30;32.40
5723;DHT22;2886;49.722;8.612;2023-06-26T12:16:54;30.90;32.70
5723;DHT22;2886;49.722;8.612;2023-06-26T12:19:25;30.90;33.10
5723;DHT22;2886;49.722;8.612;2023-06-26T12:21:53;31.30;32.50
5723;DHT22;2886;49.722;8.612;2023-06-26T12:24:22;31.40;32.30
5723;DHT22;2886;49.722;8.612;2023-06-26T12:26:53;31.20;32.80
5723;DHT22;2886;49.722;8.612;2023-06-26T12:29:20;31.20;33.10
5723;DHT22;2886;49.722;8.612;2023-06-26T12:31:51;31.00;31.40
5723;DHT22;2886;49.722;8.612;2023-06-26T12:34:27;31.00;31.70
5723;DHT22;2886;49.722;8.612;2023-06-26T12:36:53;30.90;31.70
5723;DHT22;2886;49.722;8.612;2023-06-26T12:39:20;30.70;31.60
5723;DHT22;2886;49.722;8.612;2023-06-26T12:41:57;30.60;31.80
5723;DHT22;2886;49.722;8.612;2023-06-26T12:44:29;30.80;30.80
5723;DHT22;2886;49.722;8.612;2023-06-26T12:47:00;30.90;31.00
5723;DHT22;2886;49.722;8.612;2023-06-26T12:49:45;31.20;30.50
5723;DHT22;2886;49.722;8.612;2023-06-26T12:52:15;31.00;30.50
5723;DHT22;2886;49.722;8.612;2023-06-26T12:54:43;31.00;30.30
5723;DHT22;2886;49.722;8.612;2023-06-26T12:57:09;31.30;30.70
5723;DHT22;2886;49.722;8.612;2023-06-26T12:59:38;31.50;29.70
5723;DHT22;2886;49.722;8.612;2023-06-26T13:02:05;31.20;29.50
5723;DHT22;2886;49.722;8.612;2023-06-26T13:04:30;31.00;29.60
5723;DHT22;2886;49.722;8.612;2023-06-26T13:06:56;31.10;29.60
5723;DHT22;2886;49.722;8.612;2023-06-26T13:09:23;31.00;29.50
5723;DHT22;2886;49.722;8.612;2023-06-26T13:11:51;31.00;29.30
5723;DHT22;2886;49.722;8.612;2023-06-26T13:14:16;31.00;29.40
5723;DHT22;2886;49.722;8.612;2023-06-26T13:16:42;31.20;29.70
5723;DHT22;2886;49.722;8.612;2023-06-26T13:19:07;31.50;28.80
5723;DHT22;2886;49.722;8.612;2023-06-26T13:21:34;31.70;28.30
5723;DHT22;2886;49.722;8.612;2023-06-26T13:24:00;31.90;28.50
5723;DHT22;2886;49.722;8.612;2023-06-26T13:26:25;32.00;28.00
5723;DHT22;2886;49.722;8.612;2023-06-26T13:28:52;31.90;27.90
5723;DHT22;2886;49.722;8.612;2023-06-26T13:31:18;31.30;27.50
5723;DHT22;2886;49.722;8.612;2023-06-26T13:33:44;31.10;28.00
5723;DHT22;2886;49.722;8.612;2023-06-26T13:36:11;30.80;27.60
5723;DHT22;2886;49.722;8.612;2023-06-26T13:38:36;30.70;27.90
5723;DHT22;2886;49.722;8.612;2023-06-26T13:41:02;30.40;28.10
5723;DHT22;2886;49.722;8.612;2023-06-26T13:43:29;30.50;27.60
5723;DHT22;2886;49.722;8.612;2023-06-26T13:45:56;30.20;27.70
5723;DHT22;2886;49.722;8.612;2023-06-26T13:48:22;30.20;27.50
5723;DHT22;2886;49.722;8.612;2023-06-26T13:50:50;30.30;27.60
5723;DHT22;2886;49.722;8.612;2023-06-26T13:53:16;30.20;27.20
5723;DHT22;2886;49.722;8.612;2023-06-26T13:55:42;30.10;27.50
5723;DHT22;2886;49.722;8.612;2023-06-26T13:58:08;30.00;27.60
5723;DHT22;2886;49.722;8.612;2023-06-26T14:00:36;30.20;28.00
5723;DHT22;2886;49.722;8.612;2023-06-26T14:03:05;30.40;27.70
5723;DHT22;2886;49.722;8.612;2023-06-26T14:05:32;30.60;27.60
5723;DHT22;2886;49.722;8.612;2023-06-26T14:07:58;30.40;27.20
5723;DHT22;2886;49.722;8.612;2023-06-26T14:10:23;30.30;27.20
5723;DHT22;2886;49.722;8.612;2023-06-26T14:12:49;30.10;27.40
5723;DHT22;2886;49.722;8.612;2023-06-26T14:15:15;30.00;27.60
5723;DHT22;2886;49.722;8.612;2023-06-26T14:17:41;29.90;27.60
5723;DHT22;2886;49.722;8.612;2023-06-26T14:20:08;29.90;27.60
5723;DHT22;2886;49.722;8.612;2023-06-26T14:22:41;29.80;27.80
5723;DHT22;2886;49.722;8.612;2023-06-26T14:25:08;29.90;27.80
5723;DHT22;2886;49.722;8.612;2023-06-26T14:27:35;30.00;27.90
5723;DHT22;2886;49.722;8.612;2023-06-26T14:30:01;30.00;27.30
5723;DHT22;2886;49.722;8.612;2023-06-26T14:32:27;29.90;27.60
5723;DHT22;2886;49.722;8.612;2023-06-26T14:34:52;29.50;27.40
5723;DHT22;2886;49.722;8.612;2023-06-26T14:37:18;29.70;28.00
5723;DHT22;2886;49.722;8.612;2023-06-26T14:39:44;29.80;27.10
5723;DHT22;2886;49.722;8.612;2023-06-26T14:42:10;29.90;26.90
5723;DHT22;2886;49.722;8.612;2023-06-26T14:44:36;29.80;26.40
5723;DHT22;2886;49.722;8.612;2023-06-26T14:47:02;29.70;27.20
5723;DHT22;2886;49.722;8.612;2023-06-26T14:49:27;29.70;26.50
5723;DHT22;2886;49.722;8.612;2023-06-26T14:51:53;29.60;26.70
5723;DHT22;2886;49.722;8.612;2023-06-26T14:54:19;29.60;26.50
5723;DHT22;2886;49.722;8.612;2023-06-26T14:56:44;29.40;25.80
5723;DHT22;2886;49.722;8.612;2023-06-26T14:59:11;29.40;25.90
5723;DHT22;2886;49.722;8.612;2023-06-26T15:01:38;29.40;25.50
5723;DHT22;2886;49.722;8.612;2023-06-26T15:04:04;29.40;25.30
5723;DHT22;2886;49.722;8.612;2023-06-26T15:06:30;29.30;25.20
5723;DHT22;2886;49.722;8.612;2023-06-26T15:08:57;29.40;25.20
5723;DHT22;2886;49.722;8.612;2023-06-26T15:11:23;29.10;25.30
5723;DHT22;2886;49.722;8.612;2023-06-26T15:13:49;29.10;25.70
5723;DHT22;2886;49.722;8.612;2023-06-26T15:16:14;29.30;25.40
5723;DHT22;2886;49.722;8.612;2023-06-26T15:18:41;29.40;25.40
5723;DHT22;2886;49.722;8.612;2023-06-26T15:21:07;29.40;24.80
5723;DHT22;2886;49.722;8.612;2023-06-26T15:23:33;29.40;24.80
5723;DHT22;2886;49.722;8.612;2023-06-26T15:25:59;29.10;25.30
5723;DHT22;2886;49.722;8.612;2023-06-26T15:28:26;29.30;25.20
5723;DHT22;2886;49.722;8.612;2023-06-26T15:30:52;29.40;24.80
5723;DHT22;2886;49.722;8.612;2023-06-26T15:33:18;29.20;24.40
5723;DHT22;2886;49.722;8.612;2023-06-26T15:35:44;29.30;24.30
5723;DHT22;2886;49.722;8.612;2023-06-26T15:38:10;29.20;24.40
5723;DHT22;2886;49.722;8.612;2023-06-26T15:40:36;29.10;24.20
5723;DHT22;2886;49.722;8.612;2023-06-26T15:43:01;29.10;24.30
5723;DHT22;2886;49.722;8.612;2023-06-26T15:45:27;29.10;23.70
5723;DHT22;2886;49.722;8.612;2023-06-26T15:47:53;29.00;23.60
5723;DHT22;2886;49.722;8.612;2023-06-26T15:50:19;29.20;23.20
5723;DHT22;2886;49.722;8.612;2023-06-26T15:52:45;29.30;23.00
5723;DHT22;2886;49.722;8.612;2023-06-26T15:55:11;29.20;22.70
5723;DHT22;2886;49.722;8.612;2023-06-26T15:57:37;29.10;23.30
5723;DHT22;2886;49.722;8.612;2023-06-26T16:00:04;29.10;23.40
5723;DHT22;2886;49.722;8.612;2023-06-26T16:02:30;29.20;23.00
5723;DHT22;2886;49.722;8.612;2023-06-26T16:04:55;29.20;23.00
5723;DHT22;2886;49.722;8.612;2023-06-26T16:07:21;29.10;22.40
5723;DHT22;2886;49.722;8.612;2023-06-26T16:09:47;29.00;22.80
5723;DHT22;2886;49.722;8.612;2023-06-26T16:12:13;28.90;22.90
5723;DHT22;2886;49.722;8.612;2023-06-26T16:14:39;28.70;23.00
5723;DHT22;2886;49.722;8.612;2023-06-26T16:17:06;28.70;23.60